sensor_id;sensor_type;location;lat;lon;timestamp;P1;durP1;ratioP1;P2;durP2;ratioP2
55609;SDS011;41486;52.502;13.486;2022-09-09T00:01:46;6.47;;;5.38;;
55609;SDS011;41486;52.502;13.486;2022-09-09T00:04:22;8.32;;;6.28;;
55609;SDS011;41486;52.502;13.486;2022-09-09T00:06:56;8.80;;;6.30;;
55609;SDS011;41486;52.502;13.486;2022-09-09T00:09:31;8.07;;;6.28;;
55609;SDS011;41486;52.502;13.486;2022-09-09T00:12:05;7.35;;;6.18;;
55609;SDS011;41486;52.502;13.486;2022-09-09T00:14:41;7.57;;;5.70;;
55609;SDS011;41486;52.502;13.486;2022-09-09T00:17:18;8.13;;;5.88;;
55609;SDS011;41486;52.502;13.486;2022-09-09T00:19:59;6.63;;;5.65;;
55609;SDS011;41486;52.502;13.486;2022-09-09T00:22:33;10.45;;;6.60;;
55609;SDS011;41486;52.502;13.486;2022-09-09T00:25:02;7.53;;;6.07;;
55609;SDS011;41486;52.502;13.486;2022-09-09T00:27:39;7.65;;;5.78;;
55609;SDS011;41486;52.502;13.486;2022-09-09T00:30:15;7.20;;;6.10;;
55609;SDS011;41486;52.502;13.486;2022-09-09T00:32:47;7.28;;;5.95;;
55609;SDS011;41486;52.502;13.486;2022-09-09T00:35:18;8.23;;;6.63;;
55609;SDS011;41486;52.502;13.486;2022-09-09T00:37:53;7.95;;;6.55;;
55609;SDS011;41486;52.502;13.486;2022-09-09T00:40:26;8.10;;;5.93;;
55609;SDS011;41486;52.502;13.486;2022-09-09T00:43:07;9.82;;;6.70;;
55609;SDS011;41486;52.502;13.486;2022-09-09T00:48:59;8.98;;;6.35;;
55609;SDS011;41486;52.502;13.486;2022-09-09T00:51:36;8.25;;;5.70;;
55609;SDS011;41486;52.502;13.486;2022-09-09T00:54:23;8.20;;;5.97;;
55609;SDS011;41486;52.502;13.486;2022-09-09T00:57:01;8.95;;;5.50;;
55609;SDS011;41486;52.502;13.486;2022-09-09T00:59:40;6.47;;;5.30;;
55609;SDS011;41486;52.502;13.486;2022-09-09T01:02:17;8.20;;;6.65;;
55609;SDS011;41486;52.502;13.486;2022-09-09T01:04:59;6.03;;;4.80;;
55609;SDS011;41486;52.502;13.486;2022-09-09T01:07:33;6.63;;;4.45;;
55609;SDS011;41486;52.502;13.486;2022-09-09T01:10:01;6.88;;;5.65;;
55609;SDS011;41486;52.502;13.486;2022-09-09T01:12:40;6.90;;;5.63;;
55609;SDS011;41486;52.502;13.486;2022-09-09T01:15:15;7.32;;;5.78;;
55609;SDS011;41486;52.502;13.486;2022-09-09T01:17:51;6.45;;;4.88;;
55609;SDS011;41486;52.502;13.486;2022-09-09T01:20:27;6.80;;;5.40;;
55609;SDS011;41486;52.502;13.486;2022-09-09T01:23:08;6.22;;;4.85;;
55609;SDS011;41486;52.502;13.486;2022-09-09T01:26:10;6.93;;;5.75;;
55609;SDS011;41486;52.502;13.486;2022-09-09T01:28:44;7.68;;;4.90;;
55609;SDS011;41486;52.502;13.486;2022-09-09T01:31:17;7.68;;;5.60;;
55609;SDS011;41486;52.502;13.486;2022-09-09T01:33:47;7.43;;;5.85;;
55609;SDS011;41486;52.502;13.486;2022-09-09T01:36:18;7.78;;;5.63;;
55609;SDS011;41486;52.502;13.486;2022-09-09T01:38:52;7.47;;;5.68;;
55609;SDS011;41486;52.502;13.486;2022-09-09T01:41:22;9.07;;;6.07;;
55609;SDS011;41486;52.502;13.486;2022-09-09T01:44:05;6.90;;;5.57;;
55609;SDS011;41486;52.502;13.486;2022-09-09T01:46:37;7.78;;;6.20;;
55609;SDS011;41486;52.502;13.486;2022-09-09T01:49:11;8.30;;;5.93;;
55609;SDS011;41486;52.502;13.486;2022-09-09T01:51:39;8.50;;;5.90;;
55609;SDS011;41486;52.502;13.486;2022-09-09T01:54:12;6.82;;;5.45;;
55609;SDS011;41486;52.502;13.486;2022-09-09T01:56:45;8.98;;;6.07;;
55609;SDS011;41486;52.502;13.486;2022-09-09T02:02:17;6.65;;;5.05;;
55609;SDS011;41486;52.502;13.486;2022-09-09T02:04:59;7.47;;;5.53;;
55609;SDS011;41486;52.502;13.486;2022-09-09T02:07:38;8.02;;;5.32;;
55609;SDS011;41486;52.502;13.486;2022-09-09T02:10:21;8.15;;;5.53;;
55609;SDS011;41486;52.502;13.486;2022-09-09T02:13:07;6.88;;;5.18;;
55609;SDS011;41486;52.502;13.486;2022-09-09T02:15:40;5.55;;;4.90;;
55609;SDS011;41486;52.502;13.486;2022-09-09T02:18:13;9.25;;;5.10;;
55609;SDS011;41486;52.502;13.486;2022-09-09T02:20:46;8.87;;;5.20;;
55609;SDS011;41486;52.502;13.486;2022-09-09T02:23:15;5.72;;;4.75;;
55609;SDS011;41486;52.502;13.486;2022-09-09T02:25:46;5.90;;;4.57;;
55609;SDS011;41486;52.502;13.486;2022-09-09T02:28:22;5.38;;;4.45;;
55609;SDS011;41486;52.502;13.486;2022-09-09T02:30:53;8.18;;;4.55;;
55609;SDS011;41486;52.502;13.486;2022-09-09T02:33:30;6.45;;;4.68;;
55609;SDS011;41486;52.502;13.486;2022-09-09T02:36:04;7.50;;;4.25;;
55609;SDS011;41486;52.502;13.486;2022-09-09T02:38:37;6.53;;;4.30;;
55609;SDS011;41486;52.502;13.486;2022-09-09T02:41:13;8.80;;;4.63;;
55609;SDS011;41486;52.502;13.486;2022-09-09T02:43:42;7.47;;;5.13;;
55609;SDS011;41486;52.502;13.486;2022-09-09T02:46:18;7.05;;;5.20;;
55609;SDS011;41486;52.502;13.486;2022-09-09T02:48:57;6.15;;;4.38;;
55609;SDS011;41486;52.502;13.486;2022-09-09T02:51:35;6.95;;;4.35;;
55609;SDS011;41486;52.502;13.486;2022-09-09T02:54:16;5.72;;;4.30;;
55609;SDS011;41486;52.502;13.486;2022-09-09T02:56:51;5.72;;;4.70;;
55609;SDS011;41486;52.502;13.486;2022-09-09T02:59:28;7.93;;;4.72;;
55609;SDS011;41486;52.502;13.486;2022-09-09T03:01:57;5.75;;;4.93;;
55609;SDS011;41486;52.502;13.486;2022-09-09T03:04:26;8.07;;;4.43;;
55609;SDS011;41486;52.502;13.486;2022-09-09T03:06:55;7.28;;;5.00;;
55609;SDS011;41486;52.502;13.486;2022-09-09T03:09:23;7.55;;;5.05;;
55609;SDS011;41486;52.502;13.486;2022-09-09T03:11:53;6.07;;;4.35;;
55609;SDS011;41486;52.502;13.486;2022-09-09T03:14:21;6.50;;;4.88;;
55609;SDS011;41486;52.502;13.486;2022-09-09T03:16:52;7.00;;;5.13;;
55609;SDS011;41486;52.502;13.486;2022-09-09T03:19:23;7.57;;;4.55;;
55609;SDS011;41486;52.502;13.486;2022-09-09T03:21:51;5.50;;;4.50;;
55609;SDS011;41486;52.502;13.486;2022-09-09T03:24:19;8.27;;;6.22;;
55609;SDS011;41486;52.502;13.486;2022-09-09T03:26:47;6.60;;;5.10;;
55609;SDS011;41486;52.502;13.486;2022-09-09T03:29:17;5.63;;;4.43;;
55609;SDS011;41486;52.502;13.486;2022-09-09T03:31:45;9.48;;;4.63;;
55609;SDS011;41486;52.502;13.486;2022-09-09T03:34:14;6.50;;;4.50;;
55609;SDS011;41486;52.502;13.486;2022-09-09T03:36:42;7.30;;;4.55;;
55609;SDS011;41486;52.502;13.486;2022-09-09T03:39:10;6.22;;;4.20;;
55609;SDS011;41486;52.502;13.486;2022-09-09T03:41:41;5.70;;;4.35;;
55609;SDS011;41486;52.502;13.486;2022-09-09T03:44:11;5.43;;;4.00;;
55609;SDS011;41486;52.502;13.486;2022-09-09T03:46:41;6.20;;;4.65;;
55609;SDS011;41486;52.502;13.486;2022-09-09T03:49:09;6.15;;;4.40;;
55609;SDS011;41486;52.502;13.486;2022-09-09T03:51:38;6.53;;;4.50;;
55609;SDS011;41486;52.502;13.486;2022-09-09T03:54:08;7.30;;;4.40;;
55609;SDS011;41486;52.502;13.486;2022-09-09T03:56:37;5.68;;;4.05;;
55609;SDS011;41486;52.502;13.486;2022-09-09T03:59:05;6.43;;;4.53;;
55609;SDS011;41486;52.502;13.486;2022-09-09T04:01:35;6.65;;;4.15;;
55609;SDS011;41486;52.502;13.486;2022-09-09T04:04:02;6.32;;;5.20;;
55609;SDS011;41486;52.502;13.486;2022-09-09T04:06:30;5.07;;;4.20;;
55609;SDS011;41486;52.502;13.486;2022-09-09T04:09:00;5.70;;;4.45;;
55609;SDS011;41486;52.502;13.486;2022-09-09T04:11:30;5.80;;;3.95;;
55609;SDS011;41486;52.502;13.486;2022-09-09T04:13:59;6.72;;;4.97;;
55609;SDS011;41486;52.502;13.486;2022-09-09T04:16:28;6.88;;;5.28;;
55609;SDS011;41486;52.502;13.486;2022-09-09T04:18:56;6.35;;;4.75;;
55609;SDS011;41486;52.502;13.486;2022-09-09T04:21:24;7.00;;;5.32;;
55609;SDS011;41486;52.502;13.486;2022-09-09T04:23:52;6.55;;;5.03;;
55609;SDS011;41486;52.502;13.486;2022-09-09T04:26:22;5.75;;;4.82;;
55609;SDS011;41486;52.502;13.486;2022-09-09T04:28:50;6.55;;;4.47;;
55609;SDS011;41486;52.502;13.486;2022-09-09T04:31:19;5.25;;;4.57;;
55609;SDS011;41486;52.502;13.486;2022-09-09T04:33:52;6.80;;;4.78;;
55609;SDS011;41486;52.502;13.486;2022-09-09T04:36:21;6.07;;;4.57;;
55609;SDS011;41486;52.502;13.486;2022-09-09T04:38:53;6.40;;;4.55;;
55609;SDS011;41486;52.502;13.486;2022-09-09T04:41:22;6.88;;;4.90;;
55609;SDS011;41486;52.502;13.486;2022-09-09T04:43:52;6.93;;;5.35;;
55609;SDS011;41486;52.502;13.486;2022-09-09T04:46:23;7.18;;;4.50;;
55609;SDS011;41486;52.502;13.486;2022-09-09T04:48:51;6.40;;;4.88;;
55609;SDS011;41486;52.502;13.486;2022-09-09T04:51:21;8.40;;;5.03;;
55609;SDS011;41486;52.502;13.486;2022-09-09T04:53:52;7.72;;;4.50;;
55609;SDS011;41486;52.502;13.486;2022-09-09T04:56:27;7.50;;;4.95;;
55609;SDS011;41486;52.502;13.486;2022-09-09T04:58:57;9.18;;;5.30;;
55609;SDS011;41486;52.502;13.486;2022-09-09T05:01:38;8.18;;;4.97;;
55609;SDS011;41486;52.502;13.486;2022-09-09T05:04:07;5.55;;;4.40;;
55609;SDS011;41486;52.502;13.486;2022-09-09T05:06:35;6.35;;;5.03;;
55609;SDS011;41486;52.502;13.486;2022-09-09T05:09:04;6.28;;;4.45;;
55609;SDS011;41486;52.502;13.486;2022-09-09T05:11:33;5.85;;;4.35;;
55609;SDS011;41486;52.502;13.486;2022-09-09T05:14:16;8.20;;;5.35;;
55609;SDS011;41486;52.502;13.486;2022-09-09T05:16:45;6.35;;;4.90;;
55609;SDS011;41486;52.502;13.486;2022-09-09T05:19:13;6.45;;;3.95;;
55609;SDS011;41486;52.502;13.486;2022-09-09T05:21:44;6.80;;;4.20;;
55609;SDS011;41486;52.502;13.486;2022-09-09T05:24:15;4.15;;;3.50;;
55609;SDS011;41486;52.502;13.486;2022-09-09T05:26:50;5.65;;;4.28;;
55609;SDS011;41486;52.502;13.486;2022-09-09T05:29:18;7.18;;;3.75;;
55609;SDS011;41486;52.502;13.486;2022-09-09T05:31:46;8.18;;;4.30;;
55609;SDS011;41486;52.502;13.486;2022-09-09T05:34:18;4.50;;;3.75;;
55609;SDS011;41486;52.502;13.486;2022-09-09T05:36:48;6.38;;;4.53;;
55609;SDS011;41486;52.502;13.486;2022-09-09T05:39:16;5.15;;;3.53;;
55609;SDS011;41486;52.502;13.486;2022-09-09T05:41:45;8.45;;;6.57;;
55609;SDS011;41486;52.502;13.486;2022-09-09T05:44:14;5.93;;;4.10;;
55609;SDS011;41486;52.502;13.486;2022-09-09T05:46:42;5.70;;;4.18;;
55609;SDS011;41486;52.502;13.486;2022-09-09T05:49:12;5.80;;;3.50;;
55609;SDS011;41486;52.502;13.486;2022-09-09T05:51:43;13.98;;;11.02;;
55609;SDS011;41486;52.502;13.486;2022-09-09T05:54:13;20.65;;;14.30;;
55609;SDS011;41486;52.502;13.486;2022-09-09T05:56:46;6.95;;;3.40;;
55609;SDS011;41486;52.502;13.486;2022-09-09T05:59:19;8.00;;;4.07;;
55609;SDS011;41486;52.502;13.486;2022-09-09T06:01:49;5.07;;;3.22;;
55609;SDS011;41486;52.502;13.486;2022-09-09T06:04:24;3.20;;;2.92;;
55609;SDS011;41486;52.502;13.486;2022-09-09T06:06:52;3.67;;;3.28;;
55609;SDS011;41486;52.502;13.486;2022-09-09T06:09:21;5.95;;;2.60;;
55609;SDS011;41486;52.502;13.486;2022-09-09T06:11:51;3.55;;;2.88;;
55609;SDS011;41486;52.502;13.486;2022-09-09T06:14:23;7.18;;;4.13;;
55609;SDS011;41486;52.502;13.486;2022-09-09T06:16:52;4.10;;;2.83;;
55609;SDS011;41486;52.502;13.486;2022-09-09T06:19:26;4.93;;;3.10;;
55609;SDS011;41486;52.502;13.486;2022-09-09T06:21:56;6.15;;;2.75;;
55609;SDS011;41486;52.502;13.486;2022-09-09T06:24:28;3.35;;;2.70;;
55609;SDS011;41486;52.502;13.486;2022-09-09T06:26:58;7.53;;;2.90;;
55609;SDS011;41486;52.502;13.486;2022-09-09T06:29:32;3.67;;;2.45;;
55609;SDS011;41486;52.502;13.486;2022-09-09T06:32:01;8.50;;;4.95;;
55609;SDS011;41486;52.502;13.486;2022-09-09T06:34:30;5.32;;;4.05;;
55609;SDS011;41486;52.502;13.486;2022-09-09T06:36:59;10.52;;;5.03;;
55609;SDS011;41486;52.502;13.486;2022-09-09T06:39:41;6.43;;;3.08;;
55609;SDS011;41486;52.502;13.486;2022-09-09T06:42:09;6.03;;;4.78;;
55609;SDS011;41486;52.502;13.486;2022-09-09T06:44:49;4.40;;;2.97;;
55609;SDS011;41486;52.502;13.486;2022-09-09T06:47:31;3.17;;;2.22;;
55609;SDS011;41486;52.502;13.486;2022-09-09T06:50:00;3.05;;;2.55;;
55609;SDS011;41486;52.502;13.486;2022-09-09T06:52:31;8.75;;;4.10;;
55609;SDS011;41486;52.502;13.486;2022-09-09T06:55:00;3.65;;;2.60;;
55609;SDS011;41486;52.502;13.486;2022-09-09T06:57:29;4.80;;;2.63;;
55609;SDS011;41486;52.502;13.486;2022-09-09T07:00:09;4.55;;;2.22;;
55609;SDS011;41486;52.502;13.486;2022-09-09T07:02:39;4.15;;;2.33;;
55609;SDS011;41486;52.502;13.486;2022-09-09T07:05:08;3.95;;;2.33;;
55609;SDS011;41486;52.502;13.486;2022-09-09T07:07:39;3.65;;;2.08;;
55609;SDS011;41486;52.502;13.486;2022-09-09T07:10:09;5.90;;;2.15;;
55609;SDS011;41486;52.502;13.486;2022-09-09T07:12:37;4.88;;;2.70;;
55609;SDS011;41486;52.502;13.486;2022-09-09T07:15:10;6.20;;;2.60;;
55609;SDS011;41486;52.502;13.486;2022-09-09T07:17:42;5.03;;;2.20;;
55609;SDS011;41486;52.502;13.486;2022-09-09T07:20:10;8.05;;;3.42;;
55609;SDS011;41486;52.502;13.486;2022-09-09T07:22:39;3.85;;;2.15;;
55609;SDS011;41486;52.502;13.486;2022-09-09T07:25:08;3.65;;;1.95;;
55609;SDS011;41486;52.502;13.486;2022-09-09T07:27:36;2.90;;;2.17;;
55609;SDS011;41486;52.502;13.486;2022-09-09T07:30:05;2.85;;;1.88;;
55609;SDS011;41486;52.502;13.486;2022-09-09T07:32:35;23.45;;;13.80;;
55609;SDS011;41486;52.502;13.486;2022-09-09T07:35:04;32.72;;;18.55;;
55609;SDS011;41486;52.502;13.486;2022-09-09T07:37:35;3.17;;;2.13;;
55609;SDS011;41486;52.502;13.486;2022-09-09T07:40:04;2.35;;;1.80;;
55609;SDS011;41486;52.502;13.486;2022-09-09T07:42:33;5.63;;;2.47;;
55609;SDS011;41486;52.502;13.486;2022-09-09T07:45:02;4.85;;;3.30;;
55609;SDS011;41486;52.502;13.486;2022-09-09T07:47:30;5.43;;;3.10;;
55609;SDS011;41486;52.502;13.486;2022-09-09T07:50:00;5.47;;;1.38;;
55609;SDS011;41486;52.502;13.486;2022-09-09T07:52:30;2.65;;;1.63;;
55609;SDS011;41486;52.502;13.486;2022-09-09T07:55:01;2.55;;;2.00;;
55609;SDS011;41486;52.502;13.486;2022-09-09T07:57:31;4.63;;;2.50;;
55609;SDS011;41486;52.502;13.486;2022-09-09T08:00:01;4.68;;;1.58;;
55609;SDS011;41486;52.502;13.486;2022-09-09T08:02:37;3.33;;;1.70;;
55609;SDS011;41486;52.502;13.486;2022-09-09T08:05:09;4.45;;;2.05;;
55609;SDS011;41486;52.502;13.486;2022-09-09T08:07:39;6.50;;;1.80;;
55609;SDS011;41486;52.502;13.486;2022-09-09T08:10:07;2.40;;;1.77;;
55609;SDS011;41486;52.502;13.486;2022-09-09T08:12:39;4.72;;;3.08;;
55609;SDS011;41486;52.502;13.486;2022-09-09T08:15:22;2.72;;;1.90;;
55609;SDS011;41486;52.502;13.486;2022-09-09T08:17:50;2.88;;;1.98;;
55609;SDS011;41486;52.502;13.486;2022-09-09T08:20:20;15.70;;;9.05;;
55609;SDS011;41486;52.502;13.486;2022-09-09T08:22:49;2.40;;;1.60;;
55609;SDS011;41486;52.502;13.486;2022-09-09T08:25:18;3.25;;;1.80;;
55609;SDS011;41486;52.502;13.486;2022-09-09T08:27:46;2.83;;;1.25;;
55609;SDS011;41486;52.502;13.486;2022-09-09T08:30:17;3.30;;;1.27;;
55609;SDS011;41486;52.502;13.486;2022-09-09T08:32:46;1.80;;;1.13;;
55609;SDS011;41486;52.502;13.486;2022-09-09T08:35:21;3.83;;;1.30;;
55609;SDS011;41486;52.502;13.486;2022-09-09T08:37:52;8.40;;;2.63;;
55609;SDS011;41486;52.502;13.486;2022-09-09T08:40:22;3.83;;;1.58;;
55609;SDS011;41486;52.502;13.486;2022-09-09T08:42:56;2.78;;;1.80;;
55609;SDS011;41486;52.502;13.486;2022-09-09T08:45:30;3.28;;;1.80;;
55609;SDS011;41486;52.502;13.486;2022-09-09T08:48:06;23.77;;;16.08;;
55609;SDS011;41486;52.502;13.486;2022-09-09T08:50:45;6.47;;;2.30;;
55609;SDS011;41486;52.502;13.486;2022-09-09T08:53:21;2.60;;;1.58;;
55609;SDS011;41486;52.502;13.486;2022-09-09T08:55:53;4.22;;;1.40;;
55609;SDS011;41486;52.502;13.486;2022-09-09T08:58:32;1.92;;;1.10;;
55609;SDS011;41486;52.502;13.486;2022-09-09T09:01:15;3.33;;;1.50;;
55609;SDS011;41486;52.502;13.486;2022-09-09T09:03:56;4.00;;;1.30;;
55609;SDS011;41486;52.502;13.486;2022-09-09T09:06:35;4.22;;;1.48;;
55609;SDS011;41486;52.502;13.486;2022-09-09T09:09:13;4.35;;;1.20;;
55609;SDS011;41486;52.502;13.486;2022-09-09T09:11:50;1.42;;;1.20;;
55609;SDS011;41486;52.502;13.486;2022-09-09T09:14:22;5.40;;;1.90;;
55609;SDS011;41486;52.502;13.486;2022-09-09T09:16:57;3.45;;;1.42;;
55609;SDS011;41486;52.502;13.486;2022-09-09T09:19:28;2.78;;;1.73;;
55609;SDS011;41486;52.502;13.486;2022-09-09T09:22:03;4.32;;;2.58;;
55609;SDS011;41486;52.502;13.486;2022-09-09T09:24:40;5.65;;;2.88;;
55609;SDS011;41486;52.502;13.486;2022-09-09T09:27:21;13.38;;;8.43;;
55609;SDS011;41486;52.502;13.486;2022-09-09T09:29:58;10.77;;;6.35;;
55609;SDS011;41486;52.502;13.486;2022-09-09T09:32:52;3.35;;;1.85;;
55609;SDS011;41486;52.502;13.486;2022-09-09T09:37:52;7.93;;;4.70;;
55609;SDS011;41486;52.502;13.486;2022-09-09T09:40:47;4.88;;;1.40;;
55609;SDS011;41486;52.502;13.486;2022-09-09T09:43:19;2.25;;;1.17;;
55609;SDS011;41486;52.502;13.486;2022-09-09T09:45:51;1.45;;;1.10;;
55609;SDS011;41486;52.502;13.486;2022-09-09T09:48:39;4.05;;;1.20;;
55609;SDS011;41486;52.502;13.486;2022-09-09T09:51:08;3.25;;;1.20;;
55609;SDS011;41486;52.502;13.486;2022-09-09T09:53:42;1.33;;;1.13;;
55609;SDS011;41486;52.502;13.486;2022-09-09T09:56:13;3.42;;;1.50;;
55609;SDS011;41486;52.502;13.486;2022-09-09T09:58:48;3.63;;;0.98;;
55609;SDS011;41486;52.502;13.486;2022-09-09T10:01:22;1.55;;;1.05;;
55609;SDS011;41486;52.502;13.486;2022-09-09T10:03:52;4.55;;;1.05;;
55609;SDS011;41486;52.502;13.486;2022-09-09T10:06:29;4.70;;;1.52;;
55609;SDS011;41486;52.502;13.486;2022-09-09T10:09:00;5.28;;;1.25;;
55609;SDS011;41486;52.502;13.486;2022-09-09T10:11:35;5.47;;;1.38;;
55609;SDS011;41486;52.502;13.486;2022-09-09T10:14:15;2.85;;;1.27;;
55609;SDS011;41486;52.502;13.486;2022-09-09T10:16:51;3.15;;;1.13;;
55609;SDS011;41486;52.502;13.486;2022-09-09T10:19:29;2.70;;;1.25;;
55609;SDS011;41486;52.502;13.486;2022-09-09T10:22:02;2.38;;;0.88;;
55609;SDS011;41486;52.502;13.486;2022-09-09T10:27:53;2.88;;;1.02;;
55609;SDS011;41486;52.502;13.486;2022-09-09T10:30:35;1.33;;;1.15;;
55609;SDS011;41486;52.502;13.486;2022-09-09T10:33:16;3.53;;;1.10;;
55609;SDS011;41486;52.502;13.486;2022-09-09T10:35:56;5.03;;;1.15;;
55609;SDS011;41486;52.502;13.486;2022-09-09T10:38:38;3.65;;;1.73;;
55609;SDS011;41486;52.502;13.486;2022-09-09T10:41:13;3.75;;;1.00;;
55609;SDS011;41486;52.502;13.486;2022-09-09T10:44:02;3.03;;;0.80;;
55609;SDS011;41486;52.502;13.486;2022-09-09T10:46:45;1.00;;;0.80;;
55609;SDS011;41486;52.502;13.486;2022-09-09T10:49:25;1.85;;;0.80;;
55609;SDS011;41486;52.502;13.486;2022-09-09T10:52:09;4.40;;;1.45;;
55609;SDS011;41486;52.502;13.486;2022-09-09T10:54:47;2.65;;;0.85;;
55609;SDS011;41486;52.502;13.486;2022-09-09T10:57:27;3.88;;;1.00;;
55609;SDS011;41486;52.502;13.486;2022-09-09T11:00:01;4.88;;;1.58;;
55609;SDS011;41486;52.502;13.486;2022-09-09T11:02:32;3.35;;;0.93;;
55609;SDS011;41486;52.502;13.486;2022-09-09T11:05:02;2.70;;;1.20;;
55609;SDS011;41486;52.502;13.486;2022-09-09T11:07:36;1.90;;;1.30;;
55609;SDS011;41486;52.502;13.486;2022-09-09T11:10:19;1.90;;;1.00;;
55609;SDS011;41486;52.502;13.486;2022-09-09T11:12:53;12.45;;;7.00;;
55609;SDS011;41486;52.502;13.486;2022-09-09T11:15:28;3.97;;;1.45;;
55609;SDS011;41486;52.502;13.486;2022-09-09T11:18:01;2.35;;;1.60;;
55609;SDS011;41486;52.502;13.486;2022-09-09T11:20:32;3.75;;;1.40;;
55609;SDS011;41486;52.502;13.486;2022-09-09T11:23:02;3.55;;;1.42;;
55609;SDS011;41486;52.502;13.486;2022-09-09T11:25:36;3.00;;;1.25;;
55609;SDS011;41486;52.502;13.486;2022-09-09T11:28:14;5.30;;;2.60;;
55609;SDS011;41486;52.502;13.486;2022-09-09T11:30:57;2.38;;;0.85;;
55609;SDS011;41486;52.502;13.486;2022-09-09T11:36:41;1.38;;;0.60;;
55609;SDS011;41486;52.502;13.486;2022-09-09T11:42:26;3.40;;;0.90;;
55609;SDS011;41486;52.502;13.486;2022-09-09T11:44:55;3.20;;;0.88;;
55609;SDS011;41486;52.502;13.486;2022-09-09T11:47:24;1.63;;;0.60;;
55609;SDS011;41486;52.502;13.486;2022-09-09T11:50:06;3.97;;;0.80;;
55609;SDS011;41486;52.502;13.486;2022-09-09T11:53:03;1.70;;;0.80;;
55609;SDS011;41486;52.502;13.486;2022-09-09T11:58:44;1.10;;;0.70;;
55609;SDS011;41486;52.502;13.486;2022-09-09T12:01:28;2.05;;;0.88;;
55609;SDS011;41486;52.502;13.486;2022-09-09T12:04:12;2.38;;;1.13;;
55609;SDS011;41486;52.502;13.486;2022-09-09T12:06:54;2.17;;;0.90;;
55609;SDS011;41486;52.502;13.486;2022-09-09T12:09:27;3.08;;;0.98;;
55609;SDS011;41486;52.502;13.486;2022-09-09T12:12:07;2.75;;;0.70;;
55609;SDS011;41486;52.502;13.486;2022-09-09T12:14:55;4.70;;;1.10;;
55609;SDS011;41486;52.502;13.486;2022-09-09T12:17:28;2.22;;;1.00;;
55609;SDS011;41486;52.502;13.486;2022-09-09T12:20:02;3.13;;;0.90;;
55609;SDS011;41486;52.502;13.486;2022-09-09T12:22:38;1.55;;;0.80;;
55609;SDS011;41486;52.502;13.486;2022-09-09T12:25:20;2.00;;;1.05;;
55609;SDS011;41486;52.502;13.486;2022-09-09T12:27:58;3.60;;;1.95;;
55609;SDS011;41486;52.502;13.486;2022-09-09T12:30:35;1.35;;;0.70;;
55609;SDS011;41486;52.502;13.486;2022-09-09T12:33:11;4.97;;;0.82;;
55609;SDS011;41486;52.502;13.486;2022-09-09T12:35:41;1.70;;;0.70;;
55609;SDS011;41486;52.502;13.486;2022-09-09T12:38:13;1.38;;;0.70;;
55609;SDS011;41486;52.502;13.486;2022-09-09T12:43:22;0.57;;;0.52;;
55609;SDS011;41486;52.502;13.486;2022-09-09T12:45:53;2.15;;;0.80;;
55609;SDS011;41486;52.502;13.486;2022-09-09T12:48:28;3.00;;;0.90;;
55609;SDS011;41486;52.502;13.486;2022-09-09T12:51:01;4.53;;;0.88;;
55609;SDS011;41486;52.502;13.486;2022-09-09T12:53:31;3.35;;;0.70;;
55609;SDS011;41486;52.502;13.486;2022-09-09T12:56:03;3.00;;;0.57;;
55609;SDS011;41486;52.502;13.486;2022-09-09T12:58:35;1.33;;;0.70;;
55609;SDS011;41486;52.502;13.486;2022-09-09T13:01:04;2.08;;;0.73;;
55609;SDS011;41486;52.502;13.486;2022-09-09T13:03:41;1.40;;;0.63;;
55609;SDS011;41486;52.502;13.486;2022-09-09T13:06:12;3.13;;;1.25;;
55609;SDS011;41486;52.502;13.486;2022-09-09T13:08:45;1.58;;;0.77;;
55609;SDS011;41486;52.502;13.486;2022-09-09T13:11:14;3.22;;;0.95;;
55609;SDS011;41486;52.502;13.486;2022-09-09T13:13:50;1.77;;;0.70;;
55609;SDS011;41486;52.502;13.486;2022-09-09T13:16:20;1.52;;;1.23;;
55609;SDS011;41486;52.502;13.486;2022-09-09T13:18:51;6.50;;;3.83;;
55609;SDS011;41486;52.502;13.486;2022-09-09T13:21:29;9.82;;;7.05;;
55609;SDS011;41486;52.502;13.486;2022-09-09T13:23:59;2.70;;;1.45;;
55609;SDS011;41486;52.502;13.486;2022-09-09T13:26:29;1.70;;;0.90;;
55609;SDS011;41486;52.502;13.486;2022-09-09T13:29:07;5.13;;;0.90;;
55609;SDS011;41486;52.502;13.486;2022-09-09T13:31:45;2.20;;;0.70;;
55609;SDS011;41486;52.502;13.486;2022-09-09T13:34:25;2.35;;;1.08;;
55609;SDS011;41486;52.502;13.486;2022-09-09T13:36:55;2.42;;;0.85;;
55609;SDS011;41486;52.502;13.486;2022-09-09T13:39:28;1.17;;;0.63;;
55609;SDS011;41486;52.502;13.486;2022-09-09T13:41:56;1.52;;;0.55;;
55609;SDS011;41486;52.502;13.486;2022-09-09T13:44:25;1.05;;;0.70;;
55609;SDS011;41486;52.502;13.486;2022-09-09T13:47:01;0.95;;;0.50;;
55609;SDS011;41486;52.502;13.486;2022-09-09T13:49:37;1.85;;;0.70;;
55609;SDS011;41486;52.502;13.486;2022-09-09T13:52:08;1.65;;;1.13;;
55609;SDS011;41486;52.502;13.486;2022-09-09T13:54:38;3.60;;;0.60;;
55609;SDS011;41486;52.502;13.486;2022-09-09T13:57:14;1.30;;;0.73;;
55609;SDS011;41486;52.502;13.486;2022-09-09T13:59:44;1.98;;;0.90;;
55609;SDS011;41486;52.502;13.486;2022-09-09T14:02:30;1.77;;;0.70;;
55609;SDS011;41486;52.502;13.486;2022-09-09T14:04:59;2.70;;;0.88;;
55609;SDS011;41486;52.502;13.486;2022-09-09T14:07:27;2.47;;;0.90;;
55609;SDS011;41486;52.502;13.486;2022-09-09T14:09:55;1.33;;;0.60;;
55609;SDS011;41486;52.502;13.486;2022-09-09T14:12:24;1.08;;;0.55;;
55609;SDS011;41486;52.502;13.486;2022-09-09T14:14:52;1.42;;;0.68;;
55609;SDS011;41486;52.502;13.486;2022-09-09T14:17:20;1.85;;;0.70;;
55609;SDS011;41486;52.502;13.486;2022-09-09T14:19:48;2.63;;;0.63;;
55609;SDS011;41486;52.502;13.486;2022-09-09T14:22:18;2.25;;;0.80;;
55609;SDS011;41486;52.502;13.486;2022-09-09T14:24:46;2.25;;;0.70;;
55609;SDS011;41486;52.502;13.486;2022-09-09T14:27:14;2.45;;;0.90;;
55609;SDS011;41486;52.502;13.486;2022-09-09T14:29:42;1.95;;;0.88;;
55609;SDS011;41486;52.502;13.486;2022-09-09T14:32:11;1.48;;;0.50;;
55609;SDS011;41486;52.502;13.486;2022-09-09T14:34:39;1.58;;;0.82;;
55609;SDS011;41486;52.502;13.486;2022-09-09T14:37:07;1.50;;;0.68;;
55609;SDS011;41486;52.502;13.486;2022-09-09T14:39:36;1.75;;;0.60;;
55609;SDS011;41486;52.502;13.486;2022-09-09T14:42:04;2.03;;;0.70;;
55609;SDS011;41486;52.502;13.486;2022-09-09T14:44:32;1.48;;;0.77;;
55609;SDS011;41486;52.502;13.486;2022-09-09T14:47:01;2.20;;;0.60;;
55609;SDS011;41486;52.502;13.486;2022-09-09T14:49:28;1.55;;;0.68;;
55609;SDS011;41486;52.502;13.486;2022-09-09T14:51:56;2.88;;;1.05;;
55609;SDS011;41486;52.502;13.486;2022-09-09T14:54:24;10.25;;;2.33;;
55609;SDS011;41486;52.502;13.486;2022-09-09T14:56:53;1.98;;;0.80;;
55609;SDS011;41486;52.502;13.486;2022-09-09T14:59:23;1.92;;;0.65;;
55609;SDS011;41486;52.502;13.486;2022-09-09T15:01:51;0.98;;;0.70;;
55609;SDS011;41486;52.502;13.486;2022-09-09T15:04:19;1.63;;;0.55;;
55609;SDS011;41486;52.502;13.486;2022-09-09T15:06:48;2.72;;;0.77;;
55609;SDS011;41486;52.502;13.486;2022-09-09T15:09:18;2.83;;;1.38;;
55609;SDS011;41486;52.502;13.486;2022-09-09T15:11:46;5.70;;;2.53;;
55609;SDS011;41486;52.502;13.486;2022-09-09T15:14:15;1.63;;;0.70;;
55609;SDS011;41486;52.502;13.486;2022-09-09T15:16:50;1.75;;;0.70;;
55609;SDS011;41486;52.502;13.486;2022-09-09T15:19:18;1.75;;;0.70;;
55609;SDS011;41486;52.502;13.486;2022-09-09T15:21:46;2.47;;;0.82;;
55609;SDS011;41486;52.502;13.486;2022-09-09T15:24:14;0.50;;;0.50;;
55609;SDS011;41486;52.502;13.486;2022-09-09T15:26:43;1.58;;;1.00;;
55609;SDS011;41486;52.502;13.486;2022-09-09T15:29:11;3.03;;;1.30;;
55609;SDS011;41486;52.502;13.486;2022-09-09T15:31:40;1.35;;;0.80;;